createdAt,value
2023-03-04T05:10:53.324Z,0.373
2023-03-04T05:18:01.980Z,0.747
2023-03-04T05:21:26.049Z,1.494
2023-03-04T05:24:50.198Z,2.614
2023-03-04T05:27:28.384Z,4.482
2023-03-04T05:30:01.511Z,6.723
2023-03-04T05:32:54.859Z,10.084
2023-03-04T05:36:24.074Z,16.06
2023-03-04T05:39:02.382Z,23.53
2023-03-04T05:42:00.842Z,32.121
2023-03-04T05:44:49.276Z,44.82
2023-03-04T05:47:47.870Z,58.639
2023-03-04T05:50:56.668Z,70.965
2023-03-04T05:53:50.197Z,103.833
2023-03-04T05:56:23.261Z,120.267
2023-03-04T05:58:56.313Z,143.424
2023-03-04T06:01:39.602Z,167.328
2023-03-04T06:05:03.630Z,234.558
2023-03-04T06:07:36.772Z,242.028
2023-03-04T06:10:09.818Z,318.222
2023-03-04T06:12:42.949Z,319.716
2023-03-04T06:15:21.068Z,357.066
2023-03-04T06:17:54.203Z,355.572
2023-03-04T06:20:32.244Z,475.092
2023-03-04T06:23:15.524Z,451.188
2023-03-04T06:25:48.628Z,484.056
2023-03-04T06:28:21.680Z,501.984
2023-03-04T06:30:54.780Z,603.576
2023-03-04T06:33:32.985Z,872.496
2023-03-04T06:36:16.214Z,944.208
2023-03-04T06:38:49.375Z,1254.96
2023-03-04T06:41:32.616Z,1302.768
2023-03-04T06:45:17.173Z,1553.76
2023-03-04T06:48:10.688Z,1601.568
2023-03-04T06:51:24.486Z,1768.896
2023-03-04T06:54:07.776Z,1804.752
2023-03-04T06:56:40.848Z,1864.512
2023-03-04T06:59:34.331Z,1936.224
2023-03-04T07:02:07.398Z,1995.984
2023-03-04T07:05:05.960Z,2163.312
2023-03-04T07:07:39.003Z,2282.832
2023-03-04T07:10:12.130Z,2318.688
2023-03-04T07:13:41.379Z,2665.296
2023-03-04T07:16:19.621Z,2772.864
2023-03-04T07:18:52.639Z,2772.864
2023-03-04T07:21:25.785Z,2808.72
2023-03-04T07:25:46.024Z,3203.136
2023-03-04T07:28:19.085Z,3023.856
2023-03-04T07:31:02.402Z,3047.76
2023-03-04T07:33:55.829Z,3155.328
2023-03-04T07:36:44.219Z,3585.6
2023-03-04T07:39:17.281Z,3776.832
2023-03-04T07:42:21.020Z,3824.64
2023-03-04T07:45:09.496Z,3729.024
2023-03-04T07:47:42.545Z,4159.296
2023-03-04T07:50:17.868Z,4302.72
2023-03-04T07:53:09.206Z,4493.952
2023-03-04T07:55:47.384Z,4350.528
2023-03-04T07:58:25.512Z,4780.8
2023-03-04T08:01:13.934Z,5019.84
2023-03-04T08:03:52.194Z,4900.32
2023-03-04T08:06:25.253Z,5258.88
2023-03-04T08:09:20.204Z,5689.152
2023-03-04T08:12:02.056Z,5043.744
2023-03-04T08:15:00.796Z,5426.208
2023-03-04T08:17:49.087Z,5187.168
2023-03-04T08:20:22.146Z,6310.656
2023-03-04T08:23:10.561Z,6071.616
2023-03-04T08:26:40.997Z,6095.52
2023-03-04T08:29:18.024Z,6167.232
2023-03-04T08:32:06.483Z,6406.272
2023-03-04T08:34:49.758Z,7697.088
2023-03-04T08:38:03.616Z,6979.968
2023-03-04T08:40:41.847Z,7458.048
2023-03-04T08:43:25.114Z,8892.288
2023-03-04T08:46:13.487Z,8509.824
2023-03-04T08:48:51.702Z,8366.4
2023-03-04T08:51:29.883Z,8366.4
2023-03-04T08:54:18.253Z,8318.592
2023-03-04T08:56:51.322Z,9848.448
2023-03-04T08:59:24.442Z,11187.072
2023-03-04T09:02:02.751Z,14246.784
2023-03-04T09:04:40.945Z,15107.328
2023-03-04T09:07:14.074Z,16828.416
2023-03-04T09:09:49.450Z,19983.744
2023-03-04T09:12:27.862Z,16732.8
2023-03-04T09:15:21.345Z,16541.568
2023-03-04T09:17:59.532Z,17497.728
2023-03-04T09:20:58.270Z,19314.432
2023-03-04T09:23:31.300Z,19314.432
2023-03-04T09:26:09.493Z,19505.664
2023-03-04T09:28:47.779Z,18549.504
2023-03-04T09:31:20.915Z,19792.512
2023-03-04T09:33:55.208Z,21704.832
2023-03-04T09:36:38.516Z,16924.032
2023-03-04T09:39:16.713Z,19601.28
2023-03-04T09:42:05.129Z,19410.048
2023-03-04T09:44:38.232Z,18645.12
2023-03-04T09:47:16.375Z,19123.2
2023-03-04T09:49:59.749Z,18645.12
2023-03-04T09:52:32.861Z,16732.8
2023-03-04T09:55:21.212Z,17402.112
2023-03-04T09:57:59.400Z,17880.192
2023-03-04T10:00:37.675Z,21131.136
2023-03-04T10:03:10.802Z,19601.28
2023-03-04T10:05:59.247Z,17688.96
2023-03-04T10:08:42.449Z,23234.688
2023-03-04T10:11:46.271Z,21609.216
2023-03-04T10:14:19.399Z,21896.064
2023-03-04T10:17:07.806Z,20939.904
2023-03-04T10:19:40.963Z,21609.216
2023-03-04T10:22:19.103Z,21322.368
2023-03-04T10:24:52.228Z,21800.448
2023-03-04T10:27:56.934Z,30023.424
2023-03-04T10:30:33.296Z,21035.52
2023-03-04T10:33:06.430Z,19983.744
2023-03-04T10:36:00.036Z,19505.664
2023-03-04T10:38:38.165Z,19888.128
2023-03-04T10:41:11.254Z,19888.128
2023-03-04T10:43:44.456Z,17306.496
2023-03-04T10:46:48.141Z,16732.8
2023-03-04T10:49:26.398Z,17593.344
2023-03-04T10:51:59.472Z,16828.416
2023-03-04T10:54:32.521Z,16924.032
2023-03-04T10:57:05.671Z,17497.728
2023-03-04T10:59:59.242Z,15872.256
2023-03-04T11:02:32.365Z,15967.872
2023-03-04T11:05:51.386Z,15776.64
2023-03-04T11:08:29.562Z,15967.872
2023-03-04T11:11:23.090Z,15011.712
2023-03-04T11:14:11.593Z,14724.864
2023-03-04T11:16:44.712Z,13290.624
2023-03-04T11:19:27.878Z,12430.08
2023-03-04T11:22:00.991Z,11521.728
2023-03-04T11:24:34.146Z,11760.768
2023-03-04T11:27:17.367Z,11473.92
2023-03-04T11:29:50.461Z,10995.84
2023-03-04T11:32:39.003Z,13290.624
2023-03-04T11:35:58.035Z,11999.808
2023-03-04T11:38:31.098Z,14246.784
2023-03-04T11:41:04.165Z,14246.784
2023-03-04T11:43:37.275Z,15967.872
2023-03-04T11:46:20.752Z,16732.8
2023-03-04T11:48:53.770Z,15967.872
2023-03-04T11:51:31.945Z,13290.624
2023-03-04T11:54:05.114Z,14724.864
2023-03-04T11:56:48.443Z,12812.544
2023-03-04T11:59:52.188Z,14342.4
2023-03-04T12:02:25.271Z,14151.168
2023-03-04T12:05:08.609Z,12525.696
2023-03-04T12:07:41.735Z,13003.776
2023-03-04T12:10:35.278Z,12621.312
2023-03-04T12:13:13.445Z,13481.856
2023-03-04T12:16:22.399Z,13673.088
2023-03-04T12:18:55.496Z,13864.32
2023-03-04T12:21:28.609Z,12621.312
2023-03-04T12:24:11.904Z,12812.544
2023-03-04T12:26:45.071Z,12716.928
2023-03-04T12:29:18.225Z,12716.928
2023-03-04T12:32:21.964Z,12334.464
2023-03-04T12:34:55.092Z,11760.768
2023-03-04T12:38:08.945Z,13959.936
2023-03-04T12:40:52.318Z,13768.704
2023-03-04T12:43:25.449Z,12716.928
2023-03-04T12:45:58.574Z,13099.392
2023-03-04T12:48:36.872Z,11617.344
2023-03-04T12:51:35.434Z,10278.72
2023-03-04T12:54:39.197Z,10852.416
2023-03-04T12:57:12.348Z,9131.328
2023-03-04T13:00:00.884Z,8318.592
2023-03-04T13:02:49.284Z,10422.144
2023-03-04T13:05:37.636Z,9657.216
2023-03-04T13:08:20.914Z,10900.224
2023-03-04T13:11:30.098Z,8222.976
2023-03-04T13:14:08.326Z,7697.088
2023-03-04T13:16:41.406Z,9370.368
2023-03-04T13:19:14.652Z,11330.496
2023-03-04T13:22:03.017Z,11665.152
2023-03-04T13:25:01.661Z,11282.688
2023-03-04T13:27:39.851Z,10422.144
2023-03-04T13:30:12.951Z,9513.792
2023-03-04T13:32:51.239Z,9322.56
2023-03-04T13:35:34.593Z,8653.248
2023-03-04T13:38:07.676Z,7792.704
2023-03-04T13:41:01.252Z,7075.584
2023-03-04T13:43:34.393Z,6788.736
2023-03-04T13:46:17.785Z,8318.592
2023-03-04T13:48:55.892Z,10326.528
2023-03-04T13:51:49.460Z,10422.144
2023-03-04T13:54:22.547Z,10613.376
2023-03-04T13:57:00.845Z,11330.496
2023-03-04T13:59:33.882Z,10852.416
2023-03-04T14:02:27.519Z,10374.336
2023-03-04T14:05:15.778Z,10900.224
2023-03-04T14:07:48.867Z,11282.688
2023-03-04T14:10:47.497Z,9609.408
2023-03-04T14:13:25.735Z,11234.88
2023-03-04T14:16:29.442Z,11091.456
2023-03-04T14:19:22.990Z,10278.72
2023-03-04T14:21:56.077Z,9944.064
2023-03-04T14:24:54.664Z,9322.56
2023-03-04T14:27:32.941Z,9944.064
2023-03-04T14:30:41.921Z,10565.568
2023-03-04T14:33:09.745Z,9226.944
2023-03-04T14:35:42.995Z,8796.672
2023-03-04T14:38:51.732Z,8031.744
2023-03-04T14:41:24.857Z,8796.672
2023-03-04T14:43:57.978Z,8366.4
2023-03-04T14:46:31.146Z,8509.824
2023-03-04T14:49:04.248Z,8270.784
2023-03-04T14:51:47.458Z,7505.856
2023-03-04T14:54:20.606Z,6932.16
2023-03-04T14:56:53.748Z,6454.08
2023-03-04T14:59:47.303Z,5999.904
2023-03-04T15:02:25.509Z,5497.92
2023-03-04T15:04:58.717Z,5067.648
2023-03-04T15:07:42.083Z,4685.184
2023-03-04T15:10:25.503Z,4852.512
2023-03-04T15:12:58.686Z,4852.512
2023-03-04T15:15:31.766Z,4398.336
2023-03-04T15:19:01.027Z,4039.776
2023-03-04T15:21:44.381Z,3681.216
2023-03-04T15:24:17.504Z,2988
2023-03-04T15:27:00.861Z,2486.016
2023-03-04T15:29:33.989Z,2772.864
2023-03-04T15:32:27.613Z,2904.336
2023-03-04T15:35:00.614Z,2414.304
2023-03-04T15:37:38.821Z,2211.12
2023-03-04T15:40:27.273Z,1995.984
2023-03-04T15:43:00.374Z,1673.28
2023-03-04T15:45:35.006Z,1529.856
2023-03-04T15:48:18.365Z,1577.664
2023-03-04T15:50:51.498Z,1499.976
2023-03-04T15:53:29.748Z,1392.408
2023-03-04T15:56:07.972Z,1243.008
2023-03-04T15:58:46.223Z,1446.192
2023-03-04T16:01:19.348Z,1362.528
2023-03-04T16:03:53.576Z,1260.936
2023-03-04T16:06:30.819Z,1081.656
2023-03-04T16:09:19.128Z,1051.776
2023-03-04T16:11:52.417Z,741.024
2023-03-04T16:14:35.760Z,487.044
2023-03-04T16:17:08.843Z,370.512
2023-03-04T16:20:22.789Z,246.51
2023-03-04T16:23:11.192Z,270.414
2023-03-04T16:26:09.840Z,309.258
2023-03-04T16:29:08.354Z,351.09
2023-03-04T16:32:22.306Z,369.018
2023-03-04T16:35:41.310Z,256.968
2023-03-04T16:38:14.321Z,132.966
2023-03-04T16:40:57.666Z,188.244
2023-03-04T16:43:30.787Z,204.678
2023-03-04T16:46:09.009Z,123.255
2023-03-04T16:48:57.355Z,92.628
2023-03-04T16:51:30.443Z,88.519
2023-03-04T16:54:03.511Z,67.977
2023-03-04T16:56:51.969Z,51.169
2023-03-04T16:59:22.539Z,37.723
2023-03-04T17:01:55.719Z,17.928
2023-03-04T17:04:59.396Z,14.566
2023-03-04T17:07:42.733Z,11.205
2023-03-04T17:10:15.889Z,7.096
2023-03-04T17:13:24.771Z,3.361
2023-03-04T17:16:13.149Z,2.241
2023-03-04T17:19:42.325Z,1.12
2023-03-04T17:22:20.546Z,0.373
2023-03-04T17:30:52.945Z,0
